METAR Data
IDs: Format: Raw Decoded Include TAF

Data at: 0934 UTC 28 Jul 2021

KC83 280915Z AUTO 24009KT 10SM CLR 23/08 A2997 RMK AO2
KC83 280855Z AUTO 24007KT 10SM CLR 23/08 A2997 RMK AO2
KC83 280835Z AUTO 24007KT 10SM CLR 24/08 A2998 RMK AO2
KC83 280815Z AUTO 26007KT 10SM CLR 24/08 A2997 RMK AO2
KC83 280755Z AUTO 25008KT 10SM CLR 24/09 A2998 RMK AO2
KC83 280735Z AUTO 26006KT 10SM CLR 24/09 A2998 RMK AO2
KC83 280715Z AUTO 27006KT 10SM CLR 25/09 A2998 RMK AO2
KC83 280655Z AUTO 27007KT 10SM CLR 25/10 A2998 RMK AO2
KC83 280635Z AUTO 25009KT 10SM CLR 25/10 A2998 RMK AO2
KC83 280615Z AUTO 31006KT 10SM CLR 26/09 A2998 RMK AO2
KC83 280555Z AUTO 26006KT 10SM CLR 24/10 A2998 RMK AO2
KC83 280535Z AUTO 24006KT 10SM CLR 25/10 A2997 RMK AO2
KC83 280515Z AUTO 28005KT 10SM CLR 25/10 A2997 RMK AO2
KC83 280455Z AUTO 35006KT 10SM CLR 28/11 A2996 RMK AO2
KC83 280435Z AUTO 35009KT 10SM CLR 28/11 A2995 RMK AO2
KC83 280415Z AUTO 33009KT 10SM CLR 29/11 A2994 RMK AO2
KC83 280355Z AUTO 33007KT 10SM CLR 29/11 A2993 RMK AO2
KC83 280335Z AUTO 34008KT 10SM CLR 29/10 A2993 RMK AO2
KC83 280315Z AUTO 33010KT 10SM CLR 30/09 A2992 RMK AO2
KC83 280255Z AUTO 36009KT 10SM CLR 31/09 A2992 RMK AO2
KC83 280235Z AUTO 36009KT 10SM CLR 32/10 A2991 RMK AO2
KC83 280215Z AUTO 35010KT 9SM CLR 33/08 A2991 RMK AO2
KC83 280155Z AUTO 36011KT 10SM CLR 34/07 A2991 RMK AO2
KC83 280135Z AUTO 36010G16KT 9SM CLR 34/07 A2990 RMK AO2
KC83 280115Z AUTO 36012KT 10SM CLR 34/06 A2991 RMK AO2
KC83 280055Z AUTO 36013KT 9SM CLR 35/06 A2991 RMK AO2
KC83 280035Z AUTO 35010KT 10SM CLR 35/06 A2991 RMK AO2
KC83 280015Z AUTO 36013KT 10SM CLR 35/07 A2992 RMK AO2
KC83 272355Z AUTO 35013KT 10SM CLR 35/07 A2992 RMK AO2
KC83 272335Z AUTO 36010KT 10SM CLR 35/07 A2993 RMK AO2
KC83 272315Z AUTO 36013KT 10SM CLR 35/07 A2993 RMK AO2
KC83 272255Z AUTO 36011KT 10SM CLR 35/07 A2993 RMK AO2
KC83 272235Z AUTO 35009KT 320V030 10SM CLR 35/08 A2994 RMK AO2
KC83 272215Z AUTO 36010G15KT 9SM CLR 35/07 A2994 RMK AO2
KC83 272155Z AUTO 32008G15KT 290V350 9SM CLR 35/06 A2995 RMK AO2
KC83 272135Z AUTO 36010G16KT 10SM CLR 34/06 A2995 RMK AO2
KC83 272115Z AUTO 32011KT 9SM CLR 34/06 A2996 RMK AO2
KC83 272055Z AUTO 01007G13KT 320V040 10SM CLR 33/05 A2996 RMK AO2
KC83 272035Z AUTO 33011KT 10SM CLR 33/03 A2997 RMK AO2
KC83 272015Z AUTO 02009KT 9SM CLR 32/03 A2997 RMK AO2
KC83 271955Z AUTO 33007G13KT 10SM CLR 31/03 A2998 RMK AO2
KC83 271935Z AUTO 36009KT 9SM CLR 31/06 A2998 RMK AO2
KC83 271915Z AUTO 02006KT 9SM CLR 30/08 A2999 RMK AO2
KC83 271855Z AUTO 04007KT 9SM CLR 30/08 A2999 RMK AO2
KC83 271835Z AUTO VRB05KT 10SM CLR 29/09 A2999 RMK AO2
KC83 271815Z AUTO 01005KT 10SM CLR 28/10 A3000 RMK AO2
KC83 271755Z AUTO VRB04KT 10SM CLR 27/08 A2999 RMK AO2
KC83 271735Z AUTO VRB03KT 9SM CLR 25/10 A2999 RMK AO2
KC83 271715Z AUTO 00000KT 10SM CLR 25/10 A3000 RMK AO2
KC83 271655Z AUTO 34004KT 10SM CLR 23/11 A2999 RMK AO2
KC83 271635Z AUTO 00000KT 10SM CLR 22/13 A2999 RMK AO2
KC83 271615Z AUTO 00000KT 10SM CLR 21/13 A2999 RMK AO2
KC83 271555Z AUTO 00000KT 10SM CLR 20/14 A2999 RMK AO2
KC83 271535Z AUTO 00000KT 10SM CLR 20/14 A2999 RMK AO2
KC83 271515Z AUTO 00000KT 10SM CLR 19/14 A2999 RMK AO2
KC83 271455Z AUTO 00000KT 10SM CLR 19/14 A2998 RMK AO2
KC83 271435Z AUTO 03004KT 10SM CLR 19/14 A2997 RMK AO2
KC83 271415Z AUTO 06003KT 9SM CLR 18/13 A2997 RMK AO2
KC83 271355Z AUTO 02003KT 10SM CLR 19/13 A2995 RMK AO2
KC83 271335Z AUTO 00000KT 10SM CLR 18/12 A2995 RMK AO2
KC83 271315Z AUTO 00000KT 10SM CLR 18/13 A2994 RMK AO2
KC83 271255Z AUTO 00000KT 10SM CLR 17/12 A2993 RMK AO2
KC83 271235Z AUTO 00000KT 10SM CLR 18/13 A2993 RMK AO2
KC83 271215Z AUTO 00000KT 10SM CLR 18/13 A2993 RMK AO2
KC83 271155Z AUTO 14004KT 10SM CLR 17/13 A2993 RMK AO2
KC83 271135Z AUTO 14003KT 10SM CLR 17/13 A2993 RMK AO2
KC83 271115Z AUTO 00000KT 10SM CLR 18/13 A2993 RMK AO2
KC83 271055Z AUTO 12005KT 10SM CLR 18/13 A2993 RMK AO2
KC83 271035Z AUTO 16004KT 10SM CLR 18/13 A2994 RMK AO2
KC83 271015Z AUTO 13004KT 10SM CLR 18/13 A2994 RMK AO2
KC83 270955Z AUTO 00000KT 10SM CLR 18/13 A2993 RMK AO2
KC83 270935Z AUTO 04006KT 10SM CLR 19/13 A2992 RMK AO2
KC83 270915Z AUTO 09006KT 10SM CLR 19/13 A2992 RMK AO2
KC83 270855Z AUTO 04009KT 10SM CLR 20/11 A2990 RMK AO2
KC83 270835Z AUTO 31007KT 10SM CLR 21/11 A2988 RMK AO2
KC83 270815Z AUTO 31005KT 10SM CLR 19/12 A2989 RMK AO2
KC83 270755Z AUTO 33006KT 10SM CLR 19/12 A2990 RMK AO2
KC83 270735Z AUTO 36003KT 10SM CLR 19/12 A2991 RMK AO2
KC83 270715Z AUTO 00000KT 10SM CLR 19/12 A2992 RMK AO2
KC83 270655Z AUTO 00000KT 10SM FEW042 19/13 A2993 RMK AO2
KC83 270635Z AUTO 00000KT 10SM CLR 19/13 A2993 RMK AO2
KC83 270615Z AUTO 00000KT 10SM CLR 19/13 A2992 RMK AO2
KC83 270555Z AUTO 00000KT 10SM CLR 19/13 A2993 RMK AO2
KC83 270535Z AUTO 08005KT 10SM CLR 20/13 A2994 RMK AO2
KC83 270515Z AUTO 09004KT 10SM CLR 20/13 A2992 RMK AO2
KC83 270455Z AUTO 04007KT 10SM CLR 20/13 A2991 RMK AO2
KC83 270435Z AUTO 07007KT 10SM CLR 21/13 A2990 RMK AO2
KC83 270415Z AUTO 04008KT 10SM CLR 25/09 A2988 RMK AO2
KC83 270355Z AUTO 26006KT 10SM CLR 26/07 A2987 RMK AO2
KC83 270335Z AUTO VRB04KT 10SM CLR 27/09 A2987 RMK AO2
KC83 270315Z AUTO 09004KT 9SM CLR 25/12 A2987 RMK AO2
KC83 270255Z AUTO 07006KT 10SM CLR 26/13 A2986 RMK AO2
KC83 270235Z AUTO 03009KT 9SM CLR 27/12 A2985 RMK AO2
KC83 270215Z AUTO 36007KT 10SM CLR 31/06 A2985 RMK AO2
KC83 270155Z AUTO 26010KT 10SM CLR 31/06 A2984 RMK AO2
KC83 270135Z AUTO 26012KT 10SM CLR 32/05 A2984 RMK AO2
KC83 270115Z AUTO 27009KT 10SM CLR 32/04 A2984 RMK AO2
KC83 270055Z AUTO 28013KT 9SM CLR 33/05 A2984 RMK AO2
KC83 270035Z AUTO 28014KT 10SM CLR 33/05 A2984 RMK AO2
KC83 270015Z AUTO 27013KT 10SM CLR 33/06 A2985 RMK AO2
KC83 262355Z AUTO 24010G16KT 10SM CLR 33/07 A2985 RMK AO2
KC83 262335Z AUTO 26013KT 10SM CLR 33/06 A2984 RMK AO2
KC83 262315Z AUTO 26018G23KT 10SM CLR 34/07 A2984 RMK AO2
KC83 262255Z AUTO 23017G23KT 8SM CLR 33/05 A2984 RMK AO2
KC83 262235Z AUTO 26014G21KT 10SM CLR 34/07 A2984 RMK AO2
KC83 262215Z AUTO 25010G21KT 9SM CLR 33/06 A2984 RMK AO2
KC83 262155Z AUTO 25013G22KT 10SM CLR 33/06 A2984 RMK AO2
KC83 262135Z AUTO 24017G22KT 9SM CLR 33/05 A2985 RMK AO2